ANZ698 NZNV-NZAA
Flight info
| Callsign | ANZ698 |
|---|---|
| Flight time | N/A |
| Altitude | 37000 |
| Route | ANOPA Q787 QN Y569 SAVLA/N0454F390 Y569 PEDPO Q335 DAPNO Y883 LEBOX Y655 POKOM Q277 DAVEE |
| Aircraft | A20N/M-SDE2E3FGHIRWXY/LB1 |
Departure
| Time | N/A |
|---|---|
| Airport | Invercargill Airport (NZNV) |
Arrival
| Time | 2026-05-08 06:02 |
|---|---|
| Airport | Auckland International Airport (NZAA) |
| Time | Latitude | Longitude | Altitude | Speed | Heading |
|---|---|---|---|---|---|
| 2026-05-08 05:17 | -40.48690 | 173.20402 | 36643 ft | 409 kts | 30° |
| 2026-05-08 05:18 | -40.46452 | 173.22709 | 36644 ft | 409 kts | 30° |
| 2026-05-08 05:18 | -40.41969 | 173.27323 | 36641 ft | 409 kts | 30° |
| 2026-05-08 05:19 | -40.37470 | 173.31944 | 36804 ft | 413 kts | 30° |
| 2026-05-08 05:19 | -40.35237 | 173.34236 | 36946 ft | 413 kts | 30° |
| 2026-05-08 05:19 | -40.32969 | 173.36562 | 37085 ft | 414 kts | 30° |
| 2026-05-08 05:19 | -40.30699 | 173.38889 | 37234 ft | 414 kts | 30° |
| 2026-05-08 05:20 | -40.28433 | 173.41209 | 37367 ft | 415 kts | 30° |
| 2026-05-08 05:20 | -40.26157 | 173.43537 | 37517 ft | 415 kts | 30° |
| 2026-05-08 05:20 | -40.23874 | 173.45870 | 37640 ft | 415 kts | 30° |
| 2026-05-08 05:20 | -40.21595 | 173.48197 | 37776 ft | 416 kts | 30° |
| 2026-05-08 05:21 | -40.19311 | 173.50527 | 37900 ft | 416 kts | 30° |
| 2026-05-08 05:21 | -40.17024 | 173.52858 | 38016 ft | 417 kts | 30° |
| 2026-05-08 05:21 | -40.14735 | 173.55188 | 38135 ft | 417 kts | 29° |
| 2026-05-08 05:21 | -40.12443 | 173.57521 | 38242 ft | 418 kts | 29° |
| 2026-05-08 05:22 | -40.10151 | 173.59852 | 38345 ft | 418 kts | 29° |
| 2026-05-08 05:22 | -40.05546 | 173.64531 | 38500 ft | 419 kts | 29° |
| 2026-05-08 05:23 | -40.00928 | 173.69209 | 38636 ft | 421 kts | 29° |
| 2026-05-08 05:23 | -39.96293 | 173.73893 | 38690 ft | 421 kts | 29° |
| 2026-05-08 05:24 | -39.91687 | 173.78543 | 38696 ft | 421 kts | 29° |
| 2026-05-08 05:24 | -39.87049 | 173.83219 | 38698 ft | 422 kts | 29° |
| 2026-05-08 05:25 | -39.82414 | 173.87894 | 38705 ft | 423 kts | 30° |
| 2026-05-08 05:25 | -39.77769 | 173.92591 | 38703 ft | 423 kts | 30° |
| 2026-05-08 05:26 | -39.73102 | 173.97274 | 38708 ft | 424 kts | 29° |
| 2026-05-08 05:26 | -39.68429 | 174.01945 | 38717 ft | 424 kts | 29° |
| 2026-05-08 05:27 | -39.63742 | 174.06622 | 38719 ft | 425 kts | 29° |
| 2026-05-08 05:27 | -39.59075 | 174.11272 | 38720 ft | 426 kts | 29° |
| 2026-05-08 05:28 | -39.54372 | 174.15950 | 38732 ft | 426 kts | 29° |
| 2026-05-08 05:28 | -39.49651 | 174.20639 | 38744 ft | 427 kts | 29° |
| 2026-05-08 05:29 | -39.44934 | 174.25316 | 38753 ft | 428 kts | 29° |
| 2026-05-08 05:29 | -39.40198 | 174.30005 | 38765 ft | 429 kts | 29° |
| 2026-05-08 05:30 | -39.35453 | 174.34695 | 38774 ft | 429 kts | 29° |
| 2026-05-08 05:30 | -39.30708 | 174.39377 | 38786 ft | 430 kts | 29° |
| 2026-05-08 05:31 | -39.25980 | 174.44035 | 38785 ft | 429 kts | 29° |
| 2026-05-08 05:31 | -39.21204 | 174.48731 | 38793 ft | 430 kts | 29° |
| 2026-05-08 05:32 | -39.16467 | 174.53381 | 38799 ft | 431 kts | 29° |
| 2026-05-08 05:32 | -39.11316 | 174.57021 | 38695 ft | 412 kts | 11° |
| 2026-05-08 05:32 | -39.08573 | 174.57969 | 38212 ft | 404 kts | 3° |
| 2026-05-08 05:33 | -39.05790 | 174.58493 | 37338 ft | 407 kts | 1° |
| 2026-05-08 05:33 | -39.02958 | 174.59002 | 36358 ft | 413 kts | 2° |
| 2026-05-08 05:33 | -39.00139 | 174.59520 | 35506 ft | 416 kts | 3° |
| 2026-05-08 05:33 | -38.97275 | 174.60057 | 34724 ft | 416 kts | 3° |
| 2026-05-08 05:34 | -38.94402 | 174.60599 | 33934 ft | 417 kts | 4° |
| 2026-05-08 05:34 | -38.91536 | 174.61142 | 33018 ft | 418 kts | 4° |
| 2026-05-08 05:34 | -38.88643 | 174.61689 | 32000 ft | 422 kts | 4° |
| 2026-05-08 05:34 | -38.85723 | 174.62240 | 30951 ft | 427 kts | 4° |
| 2026-05-08 05:35 | -38.82770 | 174.62798 | 29916 ft | 431 kts | 4° |
| 2026-05-08 05:35 | -38.79793 | 174.63361 | 28985 ft | 431 kts | 4° |
| 2026-05-08 05:35 | -38.76847 | 174.63922 | 28417 ft | 423 kts | 4° |
| 2026-05-08 05:35 | -38.74081 | 174.64450 | 28118 ft | 411 kts | 4° |
| 2026-05-08 05:36 | -38.71342 | 174.64971 | 27838 ft | 398 kts | 4° |
| 2026-05-08 05:36 | -38.68596 | 174.65490 | 27395 ft | 390 kts | 4° |
| 2026-05-08 05:36 | -38.65964 | 174.65985 | 26963 ft | 384 kts | 3° |
| 2026-05-08 05:36 | -38.63346 | 174.66477 | 26530 ft | 377 kts | 3° |
| 2026-05-08 05:37 | -38.60761 | 174.66963 | 26099 ft | 371 kts | 3° |
| 2026-05-08 05:37 | -38.58232 | 174.67438 | 25682 ft | 366 kts | 3° |
| 2026-05-08 05:37 | -38.55698 | 174.67911 | 25266 ft | 378 kts | 3° |
| 2026-05-08 05:37 | -38.53021 | 174.68401 | 24826 ft | 396 kts | 3° |
| 2026-05-08 05:38 | -38.50261 | 174.68914 | 24354 ft | 403 kts | 3° |
| 2026-05-08 05:38 | -38.47485 | 174.69437 | 23875 ft | 403 kts | 3° |
| 2026-05-08 05:38 | -38.44735 | 174.69960 | 23430 ft | 398 kts | 3° |
| 2026-05-08 05:38 | -38.42917 | 174.70304 | 23044 ft | 395 kts | 3° |
| 2026-05-08 05:39 | -38.40232 | 174.70812 | 22648 ft | 385 kts | 3° |
| 2026-05-08 05:39 | -38.37604 | 174.71306 | 22212 ft | 377 kts | 3° |
| 2026-05-08 05:39 | -38.35030 | 174.71788 | 21779 ft | 370 kts | 2° |
| 2026-05-08 05:39 | -38.32510 | 174.72258 | 21373 ft | 363 kts | 2° |
| 2026-05-08 05:40 | -38.30035 | 174.72719 | 20949 ft | 356 kts | 2° |
| 2026-05-08 05:40 | -38.27602 | 174.73172 | 20537 ft | 350 kts | 2° |
| 2026-05-08 05:40 | -38.25211 | 174.73616 | 20130 ft | 345 kts | 2° |
| 2026-05-08 05:40 | -38.22849 | 174.74056 | 19736 ft | 340 kts | 2° |
| 2026-05-08 05:41 | -38.20554 | 174.74482 | 19345 ft | 335 kts | 2° |
| 2026-05-08 05:41 | -38.18262 | 174.74908 | 18956 ft | 330 kts | 2° |
| 2026-05-08 05:41 | -38.15968 | 174.75329 | 18563 ft | 343 kts | 2° |
| 2026-05-08 05:41 | -38.13534 | 174.75767 | 18293 ft | 358 kts | 2° |
| 2026-05-08 05:42 | -38.11059 | 174.76224 | 18091 ft | 358 kts | 2° |
| 2026-05-08 05:42 | -38.08591 | 174.76684 | 17498 ft | 360 kts | 2° |
| 2026-05-08 05:42 | -38.06099 | 174.77147 | 16768 ft | 362 kts | 3° |
| 2026-05-08 05:42 | -38.03660 | 174.77603 | 16407 ft | 352 kts | 3° |
| 2026-05-08 05:43 | -38.01239 | 174.78056 | 15994 ft | 344 kts | 3° |
| 2026-05-08 05:43 | -37.98927 | 174.78486 | 15595 ft | 336 kts | 3° |
| 2026-05-08 05:43 | -37.96633 | 174.78911 | 15198 ft | 329 kts | 3° |
| 2026-05-08 05:43 | -37.94392 | 174.79324 | 14812 ft | 323 kts | 3° |
| 2026-05-08 05:44 | -37.92180 | 174.79732 | 14415 ft | 317 kts | 3° |
| 2026-05-08 05:44 | -37.90014 | 174.80129 | 14038 ft | 311 kts | 3° |
| 2026-05-08 05:44 | -37.87892 | 174.80514 | 13661 ft | 305 kts | 2° |
| 2026-05-08 05:44 | -37.85801 | 174.80679 | 13280 ft | 297 kts | 356° |
| 2026-05-08 05:45 | -37.83772 | 174.80688 | 12958 ft | 292 kts | 356° |
| 2026-05-08 05:45 | -37.81725 | 174.80705 | 12657 ft | 297 kts | 356° |
| 2026-05-08 05:45 | -37.79632 | 174.80728 | 12297 ft | 295 kts | 356° |
| 2026-05-08 05:45 | -37.77620 | 174.80754 | 11942 ft | 291 kts | 356° |
| 2026-05-08 05:46 | -37.75614 | 174.80782 | 11588 ft | 285 kts | 356° |
| 2026-05-08 05:46 | -37.73648 | 174.80808 | 11244 ft | 280 kts | 356° |
| 2026-05-08 05:46 | -37.71681 | 174.80832 | 10912 ft | 294 kts | 356° |
| 2026-05-08 05:46 | -37.69568 | 174.80850 | 10676 ft | 306 kts | 356° |
| 2026-05-08 05:47 | -37.67514 | 174.80876 | 10516 ft | 299 kts | 357° |
| 2026-05-08 05:47 | -37.65464 | 174.80908 | 10306 ft | 290 kts | 356° |
| 2026-05-08 05:47 | -37.63481 | 174.80938 | 10200 ft | 277 kts | 356° |
| 2026-05-08 05:47 | -37.61607 | 174.80966 | 10092 ft | 265 kts | 356° |
| 2026-05-08 05:48 | -37.59780 | 174.80990 | 9828 ft | 258 kts | 355° |
| 2026-05-08 05:48 | -37.58033 | 174.80815 | 9689 ft | 250 kts | 347° |
| 2026-05-08 05:48 | -37.56310 | 174.80392 | 9554 ft | 253 kts | 346° |
| 2026-05-08 05:48 | -37.54582 | 174.79970 | 9353 ft | 253 kts | 346° |
| 2026-05-08 05:49 | -37.52856 | 174.79557 | 9021 ft | 252 kts | 346° |
| 2026-05-08 05:49 | -37.51138 | 174.79152 | 8677 ft | 249 kts | 347° |
| 2026-05-08 05:49 | -37.49445 | 174.78753 | 8346 ft | 246 kts | 346° |
| 2026-05-08 05:49 | -37.47767 | 174.78357 | 8025 ft | 243 kts | 347° |
| 2026-05-08 05:50 | -37.46145 | 174.77975 | 7959 ft | 230 kts | 347° |
| 2026-05-08 05:50 | -37.44581 | 174.77605 | 7599 ft | 230 kts | 347° |
| 2026-05-08 05:50 | -37.43047 | 174.77243 | 7326 ft | 225 kts | 347° |
| 2026-05-08 05:50 | -37.41510 | 174.76878 | 7027 ft | 223 kts | 347° |
| 2026-05-08 05:51 | -37.39999 | 174.76520 | 6734 ft | 221 kts | 347° |
| 2026-05-08 05:51 | -37.38493 | 174.76165 | 6436 ft | 219 kts | 347° |
| 2026-05-08 05:51 | -37.37003 | 174.75814 | 6137 ft | 218 kts | 347° |
| 2026-05-08 05:51 | -37.35516 | 174.75463 | 5848 ft | 215 kts | 347° |
| 2026-05-08 05:52 | -37.34058 | 174.75120 | 5570 ft | 212 kts | 347° |
| 2026-05-08 05:52 | -37.32611 | 174.74780 | 5297 ft | 209 kts | 347° |
| 2026-05-08 05:52 | -37.31194 | 174.74445 | 5020 ft | 205 kts | 348° |
| 2026-05-08 05:52 | -37.29821 | 174.74121 | 4763 ft | 202 kts | 348° |
| 2026-05-08 05:53 | -37.28454 | 174.73799 | 4496 ft | 197 kts | 348° |
| 2026-05-08 05:53 | -37.27130 | 174.73489 | 4357 ft | 185 kts | 348° |
| 2026-05-08 05:53 | -37.25909 | 174.73203 | 4305 ft | 172 kts | 348° |
| 2026-05-08 05:53 | -37.24758 | 174.72935 | 4246 ft | 176 kts | 348° |
| 2026-05-08 05:54 | -37.23434 | 174.72596 | 4237 ft | 202 kts | 343° |
| 2026-05-08 05:54 | -37.22142 | 174.71895 | 4473 ft | 203 kts | 334° |
| 2026-05-08 05:54 | -37.20902 | 174.71008 | 4637 ft | 207 kts | 332° |
| 2026-05-08 05:54 | -37.19653 | 174.70113 | 4664 ft | 210 kts | 333° |
| 2026-05-08 05:55 | -37.18363 | 174.69244 | 4485 ft | 205 kts | 334° |
| 2026-05-08 05:55 | -37.17099 | 174.68436 | 4139 ft | 203 kts | 335° |
| 2026-05-08 05:55 | -37.15846 | 174.67661 | 3732 ft | 203 kts | 336° |
| 2026-05-08 05:55 | -37.14574 | 174.66888 | 3322 ft | 202 kts | 336° |
| 2026-05-08 05:56 | -37.13316 | 174.66126 | 2989 ft | 198 kts | 337° |
| 2026-05-08 05:56 | -37.12079 | 174.65377 | 2767 ft | 199 kts | 337° |
| 2026-05-08 05:56 | -37.10842 | 174.64632 | 2683 ft | 192 kts | 336° |
| 2026-05-08 05:56 | -37.09694 | 174.63933 | 2615 ft | 175 kts | 336° |
| 2026-05-08 05:57 | -37.08650 | 174.63298 | 2612 ft | 158 kts | 337° |
| 2026-05-08 05:57 | -37.07743 | 174.62748 | 2611 ft | 135 kts | 339° |
| 2026-05-08 05:57 | -37.06872 | 174.62501 | 2496 ft | 125 kts | 359° |
| 2026-05-08 05:57 | -37.06080 | 174.62828 | 2365 ft | 118 kts | 24° |
| 2026-05-08 05:58 | -37.05515 | 174.63562 | 2241 ft | 122 kts | 40° |
| 2026-05-08 05:58 | -37.05121 | 174.64495 | 2098 ft | 122 kts | 50° |
| 2026-05-08 05:58 | -37.04811 | 174.65504 | 1940 ft | 124 kts | 55° |
| 2026-05-08 05:58 | -37.04542 | 174.66504 | 1804 ft | 121 kts | 55° |
| 2026-05-08 05:59 | -37.04263 | 174.67499 | 1659 ft | 122 kts | 57° |
| 2026-05-08 05:59 | -37.03986 | 174.68504 | 1487 ft | 123 kts | 57° |
| 2026-05-08 05:59 | -37.03704 | 174.69529 | 1321 ft | 125 kts | 58° |
| 2026-05-08 05:59 | -37.03423 | 174.70556 | 1151 ft | 123 kts | 59° |
| 2026-05-08 06:00 | -37.03136 | 174.71592 | 983 ft | 126 kts | 61° |
| 2026-05-08 06:00 | -37.02857 | 174.72613 | 813 ft | 124 kts | 61° |
| 2026-05-08 06:00 | -37.02616 | 174.73488 | 662 ft | 120 kts | 63° |
| 2026-05-08 06:00 | -37.02344 | 174.74468 | 496 ft | 122 kts | 62° |
| 2026-05-08 06:01 | -37.02077 | 174.75465 | 358 ft | 120 kts | 62° |
| 2026-05-08 06:01 | -37.01802 | 174.76457 | 152 ft | 121 kts | 63° |
| 2026-05-08 06:01 | -37.01532 | 174.77439 | 50 ft | 120 kts | 62° |
| 2026-05-08 06:01 | -37.01262 | 174.78329 | 26 ft | 88 kts | 73° |
| 2026-05-08 06:02 | -37.01141 | 174.78807 | 27 ft | 19 kts | 70° |
| 2026-05-08 06:02 | -37.01116 | 174.78877 | 28 ft | 9 kts | 59° |
| 2026-05-08 06:02 | -37.01075 | 174.78942 | 27 ft | 11 kts | 46° |
| 2026-05-08 06:02 | -37.01024 | 174.78997 | 25 ft | 0 kts | 41° |
| 2026-05-08 06:03 | -37.00999 | 174.79024 | 25 ft | 8 kts | 41° |
| 2026-05-08 06:03 | -37.00998 | 174.79025 | 25 ft | 0 kts | 41° |
| 2026-05-08 06:03 | -37.00998 | 174.79026 | 25 ft | 1 kts | 41° |
| 2026-05-08 06:03 | -37.00964 | 174.79063 | 26 ft | 8 kts | 42° |
| 2026-05-08 06:04 | -37.00919 | 174.79111 | 28 ft | 9 kts | 34° |
| 2026-05-08 06:04 | -37.00857 | 174.79119 | 26 ft | 11 kts | 342° |
| 2026-05-08 06:04 | -37.00785 | 174.79078 | 27 ft | 11 kts | 341° |
| 2026-05-08 06:04 | -37.00749 | 174.79064 | 26 ft | 5 kts | 342° |
| 2026-05-08 06:05 | -37.00727 | 174.79055 | 26 ft | 0 kts | 341° |